Time;durP1;ratioP1;P1;durP2;ratioP2;P2;SDS_P1;SDS_P2;PMS_P1;PMS_P2;Temp;Humidity;BMP_temperature;BMP_pressure;BME280_temperature;BME280_humidity;BME280_pressure;Samples;Min_cycle;Max_cycle;Signal;HPM_P1;HPM_P2
2021/07/02 00:00:35;;;;;;;0.30;0.30;;;18.70;71.90;;;;;;5051846;28;20397;-67
2021/07/02 00:03:02;;;;;;;0.20;0.20;;;18.70;71.90;;;;;;5045846;28;20048;-68
2021/07/02 00:05:29;;;;;;;0.20;0.20;;;18.70;71.90;;;;;;5052211;28;20052;-68
2021/07/02 00:07:55;;;;;;;0.20;0.20;;;18.70;71.80;;;;;;5051794;28;20052;-67
2021/07/02 00:10:21;;;;;;;0.40;0.30;;;18.70;71.80;;;;;;5033366;28;20493;-68
2021/07/02 00:12:48;;;;;;;0.28;0.28;;;18.80;71.80;;;;;;5051780;28;20084;-67
2021/07/02 00:15:14;;;;;;;0.40;0.40;;;18.80;71.80;;;;;;5051274;28;20046;-68
2021/07/02 00:17:40;;;;;;;0.35;0.35;;;18.80;71.80;;;;;;5052199;28;20141;-68
2021/07/02 00:20:07;;;;;;;0.30;0.30;;;18.80;71.80;;;;;;5051898;28;20073;-67
2021/07/02 00:22:34;;;;;;;0.30;0.30;;;18.80;71.80;;;;;;5051859;28;20489;-68
2021/07/02 00:25:02;;;;;;;0.30;0.30;;;18.80;71.80;;;;;;5051707;28;20135;-68
2021/07/02 00:27:28;;;;;;;0.40;0.40;;;18.80;72.80;;;;;;5044184;28;20052;-67
2021/07/02 00:29:55;;;;;;;0.38;0.38;;;18.80;71.90;;;;;;5046404;28;20405;-67
2021/07/02 00:32:21;;;;;;;0.28;0.28;;;18.80;71.80;;;;;;5051606;28;20044;-67
2021/07/02 00:34:47;;;;;;;0.22;0.22;;;18.80;71.70;;;;;;5051628;28;20136;-67
2021/07/02 00:37:14;;;;;;;0.25;0.25;;;18.80;71.50;;;;;;5051344;28;20045;-67
2021/07/02 00:39:40;;;;;;;0.30;0.30;;;18.80;71.40;;;;;;5051651;28;20172;-70
2021/07/02 00:42:07;;;;;;;0.40;0.40;;;18.80;71.40;;;;;;5052163;28;20782;-70
2021/07/02 00:44:40;;;;;;;0.20;0.20;;;18.80;71.50;;;;;;5055121;28;20489;-67
2021/07/02 00:47:07;;;;;;;0.43;0.43;;;18.80;71.40;;;;;;5055381;28;20548;-68
2021/07/02 00:49:37;;;;;;;0.68;0.32;;;18.70;71.50;;;;;;5037508;28;20044;-68
2021/07/02 00:52:05;;;;;;;0.45;0.45;;;18.70;71.50;;;;;;5054827;28;20132;-67
2021/07/02 00:54:32;;;;;;;0.20;0.20;;;18.70;71.60;;;;;;5055010;28;20091;-67
2021/07/02 00:57:00;;;;;;;0.30;0.30;;;18.80;71.60;;;;;;5055184;28;20081;-67
2021/07/02 00:59:26;;;;;;;0.30;0.30;;;18.70;71.60;;;;;;5054899;28;20118;-67
2021/07/02 01:01:53;;;;;;;0.30;0.30;;;18.70;71.60;;;;;;5053333;28;20146;-67
2021/07/02 01:04:19;;;;;;;0.25;0.25;;;18.70;71.60;;;;;;5055033;28;20060;-67
2021/07/02 01:06:47;;;;;;;0.22;0.22;;;18.70;71.50;;;;;;5041259;28;20147;-67
2021/07/02 01:09:15;;;;;;;0.30;0.30;;;18.70;71.50;;;;;;5055096;28;20059;-67
2021/07/02 01:11:43;;;;;;;0.30;0.30;;;18.70;71.50;;;;;;5054442;28;20045;-68
2021/07/02 01:14:09;;;;;;;0.40;0.40;;;18.70;71.40;;;;;;5054712;28;20053;-68
2021/07/02 01:16:39;;;;;;;0.22;0.22;;;18.70;71.50;;;;;;5054613;28;20041;-67
2021/07/02 01:19:05;;;;;;;0.30;0.30;;;18.70;71.50;;;;;;5054938;28;20041;-68
2021/07/02 01:21:32;;;;;;;0.38;0.38;;;18.70;71.50;;;;;;5054658;28;20533;-69
2021/07/02 01:24:00;;;;;;;0.35;0.35;;;18.70;71.60;;;;;;5033399;28;20045;-68
2021/07/02 01:26:29;;;;;;;0.22;0.20;;;18.70;71.60;;;;;;5048559;28;20111;-67
2021/07/02 01:28:55;;;;;;;0.22;0.22;;;18.70;71.70;;;;;;5042012;28;20420;-68
2021/07/02 01:31:21;;;;;;;0.40;0.40;;;18.70;71.80;;;;;;5044957;28;20111;-67
2021/07/02 01:33:48;;;;;;;0.40;0.40;;;18.70;71.90;;;;;;5052701;28;20393;-67
2021/07/02 01:36:20;;;;;;;0.32;0.32;;;18.70;71.90;;;;;;5054327;28;20476;-67
2021/07/02 01:38:47;;;;;;;0.40;0.40;;;18.70;71.90;;;;;;5054438;28;20045;-68
2021/07/02 01:41:13;;;;;;;0.38;0.38;;;18.60;71.90;;;;;;5053967;28;20544;-67
2021/07/02 01:43:40;;;;;;;0.20;0.20;;;18.60;72.00;;;;;;5054426;28;20072;-67
2021/07/02 01:46:06;;;;;;;0.30;0.30;;;18.60;72.00;;;;;;5054278;28;20132;-67
2021/07/02 01:48:33;;;;;;;0.30;0.30;;;18.60;72.10;;;;;;5054142;28;20266;-68
2021/07/02 01:50:59;;;;;;;0.43;0.43;;;18.60;72.00;;;;;;5054083;28;20132;-67
2021/07/02 01:53:26;;;;;;;0.40;0.40;;;18.60;72.00;;;;;;5053647;28;20545;-68
2021/07/02 01:55:52;;;;;;;0.47;0.40;;;18.60;72.00;;;;;;5053324;28;20503;-68
2021/07/02 01:58:18;;;;;;;0.20;0.20;;;18.60;72.10;;;;;;5053681;28;20078;-68
2021/07/02 02:00:45;;;;;;;0.20;0.20;;;18.60;72.10;;;;;;5053978;28;20128;-68
2021/07/02 02:03:12;;;;;;;0.30;0.30;;;18.60;72.20;;;;;;5042969;28;20186;-67
2021/07/02 02:05:38;;;;;;;0.40;0.40;;;18.60;72.20;;;;;;5054050;28;20501;-67
2021/07/02 02:08:05;;;;;;;0.40;0.40;;;18.60;72.20;;;;;;5053951;28;20098;-67
2021/07/02 02:10:31;;;;;;;0.40;0.40;;;18.60;72.20;;;;;;5053297;28;20048;-68
2021/07/02 02:12:58;;;;;;;0.30;0.30;;;18.60;72.20;;;;;;5053294;28;20041;-68
2021/07/02 02:15:24;;;;;;;0.30;0.30;;;18.60;72.30;;;;;;5053449;28;20083;-68
2021/07/02 02:17:50;;;;;;;0.20;0.20;;;18.50;72.40;;;;;;5053543;28;20516;-68
2021/07/02 02:20:17;;;;;;;0.20;0.20;;;18.50;72.40;;;;;;5051629;28;20056;-67
2021/07/02 02:22:43;;;;;;;0.40;0.40;;;18.50;72.50;;;;;;5029546;28;20136;-67
2021/07/02 02:25:10;;;;;;;0.30;0.30;;;18.40;72.40;;;;;;5042908;28;20140;-67
2021/07/02 02:27:37;;;;;;;0.38;0.38;;;18.40;72.50;;;;;;5046327;28;20135;-67
2021/07/02 02:30:06;;;;;;;0.32;0.32;;;18.40;72.40;;;;;;5053323;28;20056;-67
2021/07/02 02:32:33;;;;;;;0.38;0.38;;;18.40;72.40;;;;;;5053206;28;20060;-67
2021/07/02 02:34:59;;;;;;;0.40;0.40;;;18.40;73.40;;;;;;5054786;28;20045;-68
2021/07/02 02:37:25;;;;;;;0.25;0.25;;;18.30;72.40;;;;;;5056479;28;20045;-68
2021/07/02 02:39:52;;;;;;;0.22;0.22;;;18.30;72.50;;;;;;5053106;28;20068;-70
2021/07/02 02:42:19;;;;;;;0.20;0.20;;;18.30;72.50;;;;;;5052617;28;20107;-67
2021/07/02 02:44:45;;;;;;;0.20;0.20;;;18.30;72.50;;;;;;5053401;28;20174;-68
2021/07/02 02:47:11;;;;;;;0.20;0.20;;;18.30;72.50;;;;;;5053071;28;20431;-68
2021/07/02 02:49:38;;;;;;;0.30;0.30;;;18.30;72.60;;;;;;5053058;28;20134;-68
2021/07/02 02:52:04;;;;;;;0.20;0.20;;;18.30;72.60;;;;;;5053174;28;20087;-67
2021/07/02 02:54:31;;;;;;;0.20;0.20;;;18.30;72.60;;;;;;5052718;28;20490;-67
2021/07/02 02:57:03;;;;;;;0.40;0.40;;;18.30;73.40;;;;;;5052986;28;20124;-67
2021/07/02 02:59:31;;;;;;;0.35;0.35;;;18.30;72.50;;;;;;5052796;28;20091;-68
2021/07/02 03:01:58;;;;;;;0.10;0.10;;;18.30;72.50;;;;;;5052906;28;20052;-67
2021/07/02 03:04:24;;;;;;;0.20;0.20;;;18.30;72.50;;;;;;5052547;28;20136;-67
2021/07/02 03:06:51;;;;;;;0.25;0.25;;;18.20;72.40;;;;;;5052907;28;20464;-68
2021/07/02 03:09:18;;;;;;;0.30;0.30;;;18.20;72.40;;;;;;5052531;28;20135;-68
2021/07/02 03:11:45;;;;;;;0.20;0.20;;;18.20;72.40;;;;;;5052384;28;20045;-67
2021/07/02 03:14:12;;;;;;;0.30;0.30;;;18.20;72.50;;;;;;5052412;28;20506;-67
2021/07/02 03:16:38;;;;;;;0.20;0.20;;;18.20;72.50;;;;;;5052331;28;20070;-68
2021/07/02 03:19:04;;;;;;;0.20;0.20;;;18.20;72.50;;;;;;5052494;28;20516;-67
2021/07/02 03:21:31;;;;;;;0.30;0.30;;;18.20;72.50;;;;;;5040240;28;20049;-68
2021/07/02 03:23:57;;;;;;;0.20;0.20;;;18.20;72.60;;;;;;5052238;28;20051;-67
2021/07/02 03:26:23;;;;;;;0.20;0.20;;;18.10;72.60;;;;;;5052307;28;20100;-68
2021/07/02 03:28:50;;;;;;;0.32;0.32;;;18.10;72.70;;;;;;5052199;28;20041;-67
2021/07/02 03:31:16;;;;;;;0.30;0.30;;;18.10;72.70;;;;;;5052457;28;20127;-67
2021/07/02 03:33:42;;;;;;;0.30;0.30;;;18.10;72.70;;;;;;5052138;28;20190;-68
2021/07/02 03:36:09;;;;;;;0.20;0.20;;;18.10;72.70;;;;;;5052315;28;20045;-67
2021/07/02 03:38:35;;;;;;;0.20;0.20;;;18.10;72.70;;;;;;5052063;28;20110;-67
2021/07/02 03:41:01;;;;;;;0.20;0.20;;;18.10;72.80;;;;;;5052401;28;20047;-67
2021/07/02 03:43:28;;;;;;;0.30;0.30;;;18.10;72.90;;;;;;5051859;28;20553;-67
2021/07/02 03:45:54;;;;;;;0.30;0.30;;;18.10;73.00;;;;;;5051931;28;20168;-68
2021/07/02 03:48:20;;;;;;;0.43;0.43;;;18.10;73.00;;;;;;5052392;28;20136;-67
2021/07/02 03:50:47;;;;;;;0.20;0.20;;;18.10;72.90;;;;;;5051918;28;20107;-67
2021/07/02 03:53:13;;;;;;;0.25;0.25;;;18.00;72.90;;;;;;5051880;28;20093;-68
2021/07/02 03:55:39;;;;;;;0.30;0.30;;;18.00;72.90;;;;;;5051935;28;20052;-69
2021/07/02 03:58:06;;;;;;;0.40;0.40;;;18.00;72.90;;;;;;5051923;28;20528;-69
2021/07/02 04:00:32;;;;;;;0.20;0.20;;;18.00;72.90;;;;;;5051930;28;20049;-69
2021/07/02 04:02:58;;;;;;;0.17;0.17;;;18.00;72.90;;;;;;5046886;28;20481;-70
2021/07/02 04:05:25;;;;;;;0.30;0.30;;;18.00;72.90;;;;;;5045431;28;20135;-69
2021/07/02 04:07:51;;;;;;;0.22;0.22;;;18.00;72.90;;;;;;5033349;28;20171;-69
2021/07/02 04:10:18;;;;;;;0.20;0.20;;;18.00;72.90;;;;;;5051908;28;20094;-69
2021/07/02 04:12:44;;;;;;;0.22;0.22;;;17.90;72.90;;;;;;5051502;28;20045;-69
2021/07/02 04:15:11;;;;;;;0.30;0.20;;;17.90;73.10;;;;;;5051225;28;20044;-69
2021/07/02 04:17:38;;;;;;;0.20;0.20;;;17.90;73.10;;;;;;5053115;28;20120;-70
2021/07/02 04:20:07;;;;;;;0.30;0.30;;;17.90;73.20;;;;;;5052196;28;20041;-69
2021/07/02 04:22:35;;;;;;;0.20;0.20;;;17.90;73.20;;;;;;5055096;28;20131;-69
2021/07/02 04:25:02;;;;;;;0.30;0.30;;;17.90;73.30;;;;;;5055238;28;20064;-69
2021/07/02 04:27:28;;;;;;;0.52;0.30;;;17.90;73.40;;;;;;5055266;28;20051;-68
2021/07/02 04:29:55;;;;;;;0.20;0.20;;;17.90;73.50;;;;;;5056479;28;20047;-69
2021/07/02 04:32:21;;;;;;;0.20;0.20;;;17.90;73.50;;;;;;5054176;28;20128;-69
2021/07/02 04:34:47;;;;;;;0.22;0.20;;;18.00;73.50;;;;;;5055087;28;20053;-69
2021/07/02 04:37:14;;;;;;;0.20;0.20;;;18.00;73.50;;;;;;5051784;28;20501;-69
2021/07/02 04:39:40;;;;;;;0.30;0.30;;;18.00;73.40;;;;;;5055646;28;20541;-69
2021/07/02 04:42:07;;;;;;;0.30;0.30;;;18.00;73.30;;;;;;5054702;28;20461;-69
2021/07/02 04:44:35;;;;;;;0.20;0.20;;;18.00;73.20;;;;;;5054995;28;20500;-69
2021/07/02 04:47:03;;;;;;;0.20;0.20;;;18.00;73.30;;;;;;5055042;28;20136;-69
2021/07/02 04:49:29;;;;;;;0.52;0.30;;;18.00;73.30;;;;;;5041443;28;20138;-69
2021/07/02 04:51:56;;;;;;;0.40;0.40;;;17.90;73.40;;;;;;5054616;28;20077;-69
2021/07/02 04:54:22;;;;;;;0.22;0.22;;;17.90;73.50;;;;;;5054805;28;20120;-69
2021/07/02 04:56:49;;;;;;;0.20;0.20;;;17.90;73.50;;;;;;5055257;28;20146;-69
2021/07/02 04:59:19;;;;;;;0.22;0.22;;;17.90;73.50;;;;;;5055070;28;20156;-68
2021/07/02 05:01:47;;;;;;;;;;;18.00;73.60;;;;;;5055026;28;20049;-68
2021/07/02 05:04:13;;;;;;;0.30;0.30;;;17.90;73.60;;;;;;5055062;28;19920;-68
2021/07/02 05:06:40;;;;;;;0.45;0.45;;;17.90;73.60;;;;;;5054866;28;20087;-68
2021/07/02 05:09:07;;;;;;;0.28;0.28;;;17.90;73.70;;;;;;5054329;28;20179;-68
2021/07/02 05:11:34;;;;;;;0.20;0.20;;;17.90;73.80;;;;;;5054560;28;20049;-68
2021/07/02 05:14:03;;;;;;;0.30;0.30;;;17.90;73.80;;;;;;5054664;28;20135;-69
2021/07/02 05:16:30;;;;;;;0.35;0.35;;;17.90;73.80;;;;;;5054387;28;20441;-69
2021/07/02 05:18:56;;;;;;;0.30;0.30;;;18.00;73.90;;;;;;5054599;28;20041;-69
2021/07/02 05:21:23;;;;;;;0.30;0.30;;;18.00;73.60;;;;;;5054145;28;20103;-69
2021/07/02 05:23:49;;;;;;;0.30;0.30;;;18.00;73.50;;;;;;5035943;28;20045;-70
2021/07/02 05:26:15;;;;;;;0.20;0.20;;;18.00;73.30;;;;;;5048634;28;20055;-69
2021/07/02 05:28:42;;;;;;;0.20;0.20;;;17.90;73.30;;;;;;5053005;28;20143;-65
2021/07/02 05:31:08;;;;;;;0.20;0.20;;;18.00;73.40;;;;;;5053779;28;20044;-67
2021/07/02 05:33:34;;;;;;;0.20;0.20;;;18.00;73.40;;;;;;5054202;28;20060;-67
2021/07/02 05:36:01;;;;;;;0.30;0.30;;;18.00;73.50;;;;;;5053555;28;20102;-65
2021/07/02 05:38:28;;;;;;;0.20;0.20;;;18.00;73.40;;;;;;5054324;28;20052;-66
2021/07/02 05:40:55;;;;;;;0.32;0.30;;;18.00;73.40;;;;;;5048647;28;20045;-66
2021/07/02 05:43:22;;;;;;;0.20;0.20;;;18.10;73.30;;;;;;5043889;28;20143;-66
2021/07/02 05:45:49;;;;;;;0.10;0.10;;;18.10;73.20;;;;;;5050640;28;20075;-66
2021/07/02 05:48:18;;;;;;;0.20;0.20;;;18.10;73.20;;;;;;5053453;28;20131;-66
2021/07/02 05:50:47;;;;;;;0.17;0.17;;;18.10;73.40;;;;;;5051080;28;20434;-68
2021/07/02 05:53:15;;;;;;;0.13;0.13;;;18.20;73.20;;;;;;5053332;28;20051;-66
2021/07/02 05:55:41;;;;;;;0.20;0.20;;;18.20;73.10;;;;;;5046777;28;20560;-67
2021/07/02 05:58:08;;;;;;;0.22;0.22;;;18.20;73.10;;;;;;5042452;28;20115;-67
2021/07/02 06:00:34;;;;;;;0.10;0.10;;;18.20;73.00;;;;;;5053320;28;20067;-67
2021/07/02 06:03:00;;;;;;;0.20;0.20;;;18.20;73.00;;;;;;5044828;28;20809;-66
2021/07/02 06:05:27;;;;;;;0.30;0.30;;;18.20;72.90;;;;;;5043148;28;20053;-66
2021/07/02 06:07:55;;;;;;;0.17;0.17;;;18.20;72.90;;;;;;5043393;28;20500;-66
2021/07/02 06:10:23;;;;;;;0.10;0.10;;;18.20;73.00;;;;;;5049921;28;20149;-66
2021/07/02 06:12:50;;;;;;;0.30;0.30;;;18.20;73.10;;;;;;5048803;28;20046;-66
2021/07/02 06:15:19;;;;;;;0.20;0.20;;;18.30;72.90;;;;;;5048944;28;20061;-67
2021/07/02 06:17:47;;;;;;;0.28;0.28;;;18.30;73.00;;;;;;5047542;28;20041;-66
2021/07/02 06:20:15;;;;;;;0.30;0.30;;;18.30;73.00;;;;;;5036326;28;20049;-66
2021/07/02 06:22:42;;;;;;;0.10;0.10;;;18.30;73.10;;;;;;5041379;28;20409;-66
2021/07/02 06:25:10;;;;;;;0.20;0.20;;;18.40;73.40;;;;;;5048518;28;20041;-66
2021/07/02 06:27:37;;;;;;;0.38;0.30;;;18.40;73.40;;;;;;5048417;28;20152;-66
2021/07/02 06:30:05;;;;;;;0.28;0.28;;;18.50;73.30;;;;;;5048461;28;20064;-66
2021/07/02 06:32:32;;;;;;;0.20;0.20;;;18.60;72.80;;;;;;5036745;28;20053;-66
2021/07/02 06:34:58;;;;;;;0.30;0.30;;;18.60;72.80;;;;;;5042195;28;20049;-66
2021/07/02 06:37:24;;;;;;;0.20;0.20;;;18.60;72.80;;;;;;5039953;28;20094;-66
2021/07/02 06:39:51;;;;;;;0.30;0.30;;;18.60;72.50;;;;;;5040008;28;20053;-66
2021/07/02 06:42:17;;;;;;;0.20;0.20;;;18.70;72.60;;;;;;5036787;28;20044;-66
2021/07/02 06:44:43;;;;;;;0.20;0.20;;;18.70;72.50;;;;;;5048235;28;20489;-66
2021/07/02 06:47:10;;;;;;;0.10;0.10;;;18.80;72.50;;;;;;5040500;28;20080;-66
2021/07/02 06:49:38;;;;;;;0.20;0.20;;;18.90;72.50;;;;;;5041717;28;20053;-66
2021/07/02 06:52:06;;;;;;;0.10;0.10;;;19.10;72.20;;;;;;5041956;28;20179;-66
2021/07/02 06:54:33;;;;;;;0.20;0.20;;;19.20;72.00;;;;;;5043936;28;20471;-66
2021/07/02 06:57:03;;;;;;;0.10;0.10;;;19.30;71.80;;;;;;5047792;28;20106;-66
2021/07/02 06:59:37;;;;;;;0.20;0.20;;;19.40;71.60;;;;;;5047743;28;20099;-66
2021/07/02 07:02:04;;;;;;;0.43;0.25;;;19.60;71.30;;;;;;5046984;28;20138;-66
2021/07/02 07:04:35;;;;;;;0.10;0.10;;;19.70;71.20;;;;;;5045305;28;20128;-66
2021/07/02 07:07:06;;;;;;;0.10;0.10;;;19.90;71.10;;;;;;5041200;28;20048;-66
2021/07/02 07:09:34;;;;;;;0.10;0.10;;;20.00;70.60;;;;;;5048979;28;20565;-66
2021/07/02 07:12:01;;;;;;;0.10;0.10;;;20.20;70.00;;;;;;5048978;28;20045;-66
2021/07/02 07:14:27;;;;;;;0.20;0.20;;;20.30;70.70;;;;;;5044754;28;20053;-66
2021/07/02 07:16:54;;;;;;;0.20;0.20;;;20.30;69.20;;;;;;5048420;28;20062;-66
2021/07/02 07:19:24;;;;;;;0.22;0.20;;;20.30;68.70;;;;;;5048366;28;20045;-64
2021/07/02 07:21:52;;;;;;;0.20;0.20;;;20.30;68.00;;;;;;5043845;28;20118;-66
2021/07/02 07:24:18;;;;;;;0.20;0.20;;;20.10;68.20;;;;;;5041476;28;20056;-66
2021/07/02 07:26:45;;;;;;;0.10;0.10;;;20.00;69.00;;;;;;5048336;28;20053;-65
2021/07/02 07:29:11;;;;;;;0.38;0.20;;;20.10;68.80;;;;;;5046674;28;20052;-66
2021/07/02 07:31:38;;;;;;;0.20;0.20;;;20.10;68.80;;;;;;5048357;28;20579;-66
2021/07/02 07:34:05;;;;;;;0.10;0.10;;;20.00;68.70;;;;;;5047593;28;20139;-66
2021/07/02 07:36:32;;;;;;;0.17;0.10;;;20.00;69.00;;;;;;5038464;28;20045;-66
2021/07/02 07:38:58;;;;;;;0.20;0.20;;;20.10;69.10;;;;;;5045709;28;20086;-66
2021/07/02 07:41:25;;;;;;;0.52;0.20;;;20.30;68.70;;;;;;5042956;28;20081;-66
2021/07/02 07:43:51;;;;;;;0.10;0.10;;;20.30;68.50;;;;;;5045280;28;20091;-66
2021/07/02 07:46:18;;;;;;;0.20;0.20;;;20.40;68.60;;;;;;5048163;28;20102;-66
2021/07/02 07:48:44;;;;;;;0.10;0.10;;;20.50;68.70;;;;;;5048205;28;20056;-66
2021/07/02 07:53:53;;;;;;;0.13;0.13;;;20.80;68.50;;;;;;5047527;28;20485;-66
2021/07/02 07:56:19;;;;;;;0.10;0.10;;;21.00;68.10;;;;;;5057316;28;20049;-66
2021/07/02 07:58:46;;;;;;;0.17;0.17;;;21.10;67.60;;;;;;5047941;28;20123;-66
2021/07/02 08:01:12;;;;;;;0.10;0.10;;;21.20;66.30;;;;;;5040239;28;20552;-66
2021/07/02 08:03:38;;;;;;;0.10;0.10;;;21.20;66.50;;;;;;5048273;28;20057;-66
2021/07/02 08:06:05;;;;;;;0.22;0.22;;;21.30;66.50;;;;;;5044790;28;21785;-66
2021/07/02 08:08:31;;;;;;;0.20;0.20;;;21.30;66.50;;;;;;5036547;28;20247;-66
2021/07/02 08:10:57;;;;;;;0.20;0.20;;;21.30;66.10;;;;;;5048159;28;20106;-66
2021/07/02 08:13:28;;;;;;;0.17;0.17;;;21.40;66.30;;;;;;5047622;28;20056;-66
2021/07/02 08:15:54;;;;;;;0.20;0.20;;;21.30;66.00;;;;;;5048096;28;20155;-66
2021/07/02 08:18:21;;;;;;;0.30;0.15;;;21.30;66.30;;;;;;5047462;28;20054;-66
2021/07/02 08:20:47;;;;;;;0.10;0.10;;;21.40;66.30;;;;;;5040544;28;20712;-66
2021/07/02 08:23:14;;;;;;;0.10;0.10;;;21.50;65.80;;;;;;5045527;28;20064;-66
2021/07/02 08:25:40;;;;;;;0.10;0.10;;;21.50;65.90;;;;;;5048153;28;20048;-66
2021/07/02 08:30:51;;;;;;;0.03;0.03;;;21.70;66.00;;;;;;5048381;28;20045;-66
2021/07/02 08:33:18;;;;;;;0.10;0.10;;;21.90;65.60;;;;;;5047653;28;20053;-66
2021/07/02 08:35:46;;;;;;;0.20;0.20;;;22.00;64.50;;;;;;5048661;28;20464;-66
2021/07/02 08:38:16;;;;;;;0.15;0.15;;;22.00;64.10;;;;;;5047797;28;20102;-66
2021/07/02 08:40:43;;;;;;;0.10;0.10;;;22.10;64.10;;;;;;5047823;28;20049;-66
2021/07/02 08:43:10;;;;;;;0.25;0.25;;;22.10;63.70;;;;;;5047752;28;20497;-66
2021/07/02 08:45:37;;;;;;;0.30;0.30;;;22.00;62.90;;;;;;5047797;28;20053;-66
2021/07/02 08:48:06;;;;;;;0.25;0.25;;;21.60;64.10;;;;;;5047380;28;20134;-66
2021/07/02 08:50:34;;;;;;;0.55;0.30;;;21.20;65.20;;;;;;5047622;28;20052;-66
2021/07/02 08:53:00;;;;;;;0.20;0.20;;;20.80;66.50;;;;;;5047786;28;20053;-66
2021/07/02 08:55:27;;;;;;;0.25;0.25;;;20.70;67.30;;;;;;5047973;28;20125;-66
2021/07/02 08:57:53;;;;;;;0.50;0.20;;;20.80;67.80;;;;;;5047245;28;20056;-66
2021/07/02 09:00:20;;;;;;;0.20;0.20;;;20.90;67.50;;;;;;5047454;28;20088;-66
2021/07/02 09:02:47;;;;;;;0.20;0.20;;;20.90;67.10;;;;;;5047534;28;20172;-66
2021/07/02 09:05:38;;;;;;;0.13;0.13;;;21.00;67.40;;;;;;5050768;28;20060;-66
2021/07/02 09:08:15;;;;;;;0.43;0.15;;;21.40;67.20;;;;;;5050723;28;20167;-66
2021/07/02 09:10:42;;;;;;;0.20;0.20;;;21.80;66.40;;;;;;5038690;28;20079;-66
2021/07/02 09:13:08;;;;;;;0.20;0.20;;;22.20;65.40;;;;;;5049053;28;20094;-66
2021/07/02 09:15:42;;;;;;;0.10;0.10;;;22.40;63.80;;;;;;5051415;28;20094;-66
2021/07/02 09:18:08;;;;;;;0.10;0.08;;;22.60;63.90;;;;;;5050772;28;20056;-66
2021/07/02 09:20:36;;;;;;;0.38;0.10;;;22.90;63.70;;;;;;5055328;28;20072;-66
2021/07/02 09:23:09;;;;;;;0.65;0.10;;;23.30;62.80;;;;;;5054135;28;20254;-66
2021/07/02 09:25:41;;;;;;;0.10;0.10;;;23.50;60.70;;;;;;5032994;28;20049;-66
2021/07/02 09:28:13;;;;;;;0.10;0.10;;;23.40;60.10;;;;;;5050293;28;20053;-66
2021/07/02 09:30:41;;;;;;;0.28;0.20;;;23.40;60.10;;;;;;5050817;28;20056;-66
2021/07/02 09:33:10;;;;;;;0.20;0.20;;;23.40;59.80;;;;;;5050808;28;20052;-66
2021/07/02 09:35:45;;;;;;;0.20;0.20;;;23.30;60.40;;;;;;5050598;28;20087;-66
2021/07/02 09:38:12;;;;;;;0.30;0.10;;;23.10;61.20;;;;;;5050785;28;20775;-66
2021/07/02 09:40:39;;;;;;;0.13;0.13;;;23.10;61.30;;;;;;5050584;28;20040;-66
2021/07/02 09:43:18;;;;;;;0.30;0.30;;;23.10;61.50;;;;;;5050300;28;20048;-66
2021/07/02 09:45:53;;;;;;;0.38;0.28;;;23.30;61.20;;;;;;5050572;28;20053;-66
2021/07/02 09:48:23;;;;;;;0.77;0.20;;;23.30;61.50;;;;;;5050663;28;20523;-66
2021/07/02 09:50:50;;;;;;;0.40;0.20;;;23.20;61.30;;;;;;5050588;28;20130;-66
2021/07/02 09:53:19;;;;;;;0.15;0.10;;;23.00;61.80;;;;;;5050060;28;20542;-66
2021/07/02 09:55:51;;;;;;;0.30;0.15;;;22.70;62.50;;;;;;5049846;28;20060;-66
2021/07/02 09:58:21;;;;;;;0.10;0.10;;;22.50;63.40;;;;;;5050353;28;20520;-66
2021/07/02 10:00:59;;;;;;;0.70;0.30;;;22.50;63.00;;;;;;5049519;28;20041;-66
2021/07/02 10:03:38;;;;;;;0.30;0.10;;;22.50;63.10;;;;;;5041249;28;20103;-66
2021/07/02 10:06:14;;;;;;;0.10;0.10;;;22.60;63.30;;;;;;5047060;28;20155;-68
2021/07/02 10:08:41;;;;;;;0.10;0.10;;;22.60;63.00;;;;;;5049176;28;20045;-65
2021/07/02 10:11:10;;;;;;;0.20;0.20;;;22.40;63.70;;;;;;5048035;28;20052;-65
2021/07/02 10:13:38;;;;;;;0.35;0.25;;;22.20;63.90;;;;;;5038089;28;20144;-66
2021/07/02 10:16:07;;;;;;;0.20;0.20;;;22.00;64.70;;;;;;5034532;28;20132;-65
2021/07/02 10:18:46;;;;;;;0.20;0.20;;;21.80;65.20;;;;;;5048031;28;20126;-65
2021/07/02 10:21:13;;;;;;;0.20;0.20;;;21.60;66.30;;;;;;5044963;28;20053;-65
2021/07/02 10:23:46;;;;;;;0.22;0.22;;;21.50;67.00;;;;;;5030006;28;20497;-65
2021/07/02 10:26:14;;;;;;;0.15;0.15;;;21.60;66.70;;;;;;5044545;28;20053;-65
2021/07/02 10:28:42;;;;;;;0.03;0.03;;;21.60;66.70;;;;;;5048756;28;20063;-65
2021/07/02 10:31:10;;;;;;;0.10;0.10;;;21.50;66.90;;;;;;5043871;28;20046;-65
2021/07/02 10:33:50;;;;;;;0.20;0.20;;;21.40;67.20;;;;;;5044102;28;20045;-65
2021/07/02 10:36:18;;;;;;;0.35;0.30;;;21.40;67.60;;;;;;5043971;28;20064;-66
2021/07/02 10:38:50;;;;;;;0.08;0.08;;;21.50;67.60;;;;;;5048567;28;20096;-66
2021/07/02 10:41:21;;;;;;;0.10;0.10;;;21.60;67.40;;;;;;5043193;28;20053;-66
2021/07/02 10:44:06;;;;;;;0.10;0.10;;;21.70;67.30;;;;;;5043968;28;20204;-66
2021/07/02 10:46:58;;;;;;;0.20;0.20;;;22.00;66.90;;;;;;5039264;28;20045;-66
2021/07/02 10:49:39;;;;;;;0.20;0.20;;;22.30;65.40;;;;;;5047179;28;20741;-66
2021/07/02 10:52:28;;;;;;;0.35;0.20;;;22.30;64.80;;;;;;5049547;28;20064;-65
2021/07/02 10:54:56;;;;;;;0.67;0.10;;;22.30;65.00;;;;;;5042166;28;20158;-66
2021/07/02 10:57:25;;;;;;;0.40;0.40;;;22.20;65.60;;;;;;5043684;28;20084;-66
2021/07/02 10:59:52;;;;;;;0.10;0.10;;;22.30;66.20;;;;;;5048005;28;20098;-66
2021/07/02 11:02:25;;;;;;;0.30;0.20;;;22.30;65.50;;;;;;5048356;28;20049;-66
2021/07/02 11:04:56;;;;;;;0.10;0.10;;;22.50;65.40;;;;;;5047612;28;20077;-65
2021/07/02 11:07:22;;;;;;;0.20;0.20;;;22.70;65.10;;;;;;5047970;28;20052;-66
2021/07/02 11:09:49;;;;;;;0.20;0.20;;;22.70;64.20;;;;;;5047333;28;20090;-65
2021/07/02 11:12:30;;;;;;;0.20;0.10;;;22.70;64.50;;;;;;5048270;28;20595;-66
2021/07/02 11:14:58;;;;;;;0.10;0.10;;;22.80;64.40;;;;;;5048385;28;20140;-65
2021/07/02 11:17:29;;;;;;;0.10;0.10;;;22.70;63.70;;;;;;5048859;28;20049;-66
2021/07/02 11:20:07;;;;;;;0.10;0.10;;;22.70;63.50;;;;;;5052617;28;20053;-66
2021/07/02 11:22:38;;;;;;;0.15;0.15;;;22.70;63.70;;;;;;5048443;28;20113;-66
2021/07/02 11:25:14;;;;;;;0.20;0.10;;;22.60;64.10;;;;;;5048620;28;20138;-66
2021/07/02 11:27:52;;;;;;;0.10;0.10;;;22.70;64.00;;;;;;5048602;28;20079;-66
2021/07/02 11:30:22;;;;;;;0.10;0.10;;;22.60;64.00;;;;;;5044600;28;20057;-65
2021/07/02 11:32:54;;;;;;;0.63;0.43;;;22.60;64.20;;;;;;5048655;28;20125;-66
2021/07/02 11:35:23;;;;;;;0.20;0.20;;;22.60;64.00;;;;;;5048253;28;20060;-66
2021/07/02 11:38:13;;;;;;;0.45;0.30;;;22.40;64.30;;;;;;5045324;28;20050;-66
2021/07/02 11:40:52;;;;;;;0.43;0.25;;;22.30;64.60;;;;;;5045463;28;20099;-66
2021/07/02 11:43:22;;;;;;;0.10;0.10;;;22.20;65.20;;;;;;5048635;28;20045;-66
2021/07/02 11:45:53;;;;;;;;;;;22.20;64.60;;;;;;5049067;28;20041;-66
2021/07/02 11:48:19;;;;;;;0.35;0.35;;;22.20;64.60;;;;;;5048269;28;20740;-66
2021/07/02 11:50:53;;;;;;;0.50;0.17;;;22.20;64.00;;;;;;5048332;28;20572;-66
2021/07/02 11:53:51;;;;;;;0.30;0.30;;;21.90;64.10;;;;;;5048156;28;20153;-66
2021/07/02 11:56:19;;;;;;;0.20;0.20;;;21.80;65.30;;;;;;5047610;28;20045;-66
2021/07/02 11:58:59;;;;;;;0.20;0.20;;;21.90;65.20;;;;;;5048180;28;20049;-66
2021/07/02 12:01:28;;;;;;;0.30;0.10;;;21.90;64.60;;;;;;5048230;28;20111;-66
2021/07/02 12:04:00;;;;;;;0.10;0.10;;;21.70;64.70;;;;;;5048249;28;20100;-66
2021/07/02 12:06:31;;;;;;;0.20;0.20;;;21.60;65.30;;;;;;5047571;28;20053;-66
2021/07/02 12:09:18;;;;;;;0.10;0.10;;;21.60;65.90;;;;;;5048481;28;20060;-65
2021/07/02 12:11:46;;;;;;;0.15;0.15;;;21.70;66.00;;;;;;5035615;28;20144;-65
2021/07/02 12:14:14;;;;;;;0.00;0.00;;;21.80;65.80;;;;;;5047899;28;20110;-66
2021/07/02 12:16:43;;;;;;;0.05;0.00;;;22.00;65.60;;;;;;5048069;28;20564;-66
2021/07/02 12:19:15;;;;;;;0.10;0.10;;;22.20;65.40;;;;;;5048058;28;20053;-66
2021/07/02 12:21:49;;;;;;;0.08;0.08;;;22.50;64.20;;;;;;5038641;28;20074;-66
2021/07/02 12:24:22;;;;;;;0.13;0.10;;;22.70;63.20;;;;;;5048093;28;20175;-66
2021/07/02 12:27:13;;;;;;;0.00;0.00;;;22.60;63.00;;;;;;5047725;28;20052;-67
2021/07/02 12:29:41;;;;;;;0.10;0.10;;;22.60;63.10;;;;;;5044855;28;20140;-66
2021/07/02 12:32:10;;;;;;;0.10;0.10;;;22.60;63.10;;;;;;5048148;28;20152;-66
2021/07/02 12:34:39;;;;;;;0.30;0.17;;;22.60;63.60;;;;;;5047846;28;20053;-66
2021/07/02 12:37:10;;;;;;;0.10;0.10;;;22.60;63.30;;;;;;5047480;28;20060;-68
2021/07/02 12:39:41;;;;;;;0.10;0.10;;;22.60;63.00;;;;;;5050697;28;20131;-68
2021/07/02 12:42:15;;;;;;;0.10;0.10;;;22.60;63.20;;;;;;5051576;28;20106;-66
2021/07/02 12:44:47;;;;;;;0.17;0.10;;;22.60;63.20;;;;;;5051900;28;20055;-66
2021/07/02 12:47:13;;;;;;;0.10;0.10;;;22.50;63.00;;;;;;5051444;28;20057;-66
2021/07/02 12:49:47;;;;;;;0.20;0.20;;;22.50;63.10;;;;;;5051502;28;20138;-67
2021/07/02 12:57:28;;;;;;;0.00;0.00;;;22.40;63.80;;;;;;5042266;28;20041;-67
2021/07/02 12:59:57;;;;;;;0.10;0.10;;;22.40;63.90;;;;;;5051315;28;20175;-67
2021/07/02 13:02:29;;;;;;;0.10;0.10;;;22.50;63.80;;;;;;5051292;28;20056;-66
2021/07/02 13:04:57;;;;;;;0.25;0.20;;;22.60;63.80;;;;;;5050922;28;20515;-66